CheckWX is a tool to help pilots better visualize weather data.  It is not intended as a substitute for an official pre-flight weather briefing.

01:05:57 UTC

KUGN METAR
Waukegan National Airport
Chicago/Waukegan, Illinois, USA
Current

1 hour ago

KUGN 192355Z 07004KT 10SM BKN050 24/20 A3000 RMK AO2 SLP147 T02440200 10261 20239 58004
Observed
Aug-19 @ 23:55 UTC
Wind
  • 070° at 4 KTS
Visibility
10 SM
Flight Rules
VFR
Cloud Levels
  • Broken at 5,000' AGL
Temperature
24°C / 75°F
Dewpoint
20°C / 68°F
Humidity
78%
Altimeter
30" Hg
Pressure
1015.92 hPa
Previous

2 hours ago

KUGN 192255Z 10006KT 10SM FEW043 25/20 A3000 RMK AO2 SLP149 T02500200
Observed
Aug-19 @ 22:55 UTC
Wind
  • 100° at 6 KTS
Visibility
10 SM
Flight Rules
VFR
Cloud Levels
  • Few at 4,300' AGL
Temperature
25°C / 77°F
Dewpoint
20°C / 68°F
Humidity
74%
Altimeter
30" Hg
Pressure
1015.92 hPa
Previous

3 hours ago

KUGN 192155Z 10004KT 10SM FEW070 SCT090 26/20 A3001 RMK AO2 SLP154 T02560200
Observed
Aug-19 @ 21:55 UTC
Wind
  • 100° at 4 KTS
Visibility
10 SM
Flight Rules
VFR
Cloud Levels
  • Few at 7,000' AGL
  • Scattered at 9,000' AGL
Temperature
26°C / 79°F
Dewpoint
20°C / 68°F
Humidity
70%
Altimeter
30.01" Hg
Pressure
1016.22 hPa